sensor_id;sensor_type;location;lat;lon;timestamp;temperature;humidity
66920;DHT22;53831;52.090;17.026;2022-09-09T00:00:24;16.30;99.90
66920;DHT22;53831;52.090;17.026;2022-09-09T00:01:33;16.30;99.90
66920;DHT22;53831;52.090;17.026;2022-09-09T00:02:36;16.30;99.90
66920;DHT22;53831;52.090;17.026;2022-09-09T00:03:40;16.20;99.90
66920;DHT22;53831;52.090;17.026;2022-09-09T00:04:42;16.20;99.90
66920;DHT22;53831;52.090;17.026;2022-09-09T00:07:32;16.20;99.90
66920;DHT22;53831;52.090;17.026;2022-09-09T00:08:07;16.20;99.90
66920;DHT22;53831;52.090;17.026;2022-09-09T00:09:19;16.20;99.90
66920;DHT22;53831;52.090;17.026;2022-09-09T00:10:24;16.10;99.90
66920;DHT22;53831;52.090;17.026;2022-09-09T00:11:27;16.20;99.90
66920;DHT22;53831;52.090;17.026;2022-09-09T00:13:37;16.10;99.90
66920;DHT22;53831;52.090;17.026;2022-09-09T00:14:42;16.10;99.90
66920;DHT22;53831;52.090;17.026;2022-09-09T00:17:01;16.10;99.90
66920;DHT22;53831;52.090;17.026;2022-09-09T00:18:09;16.00;99.90
66920;DHT22;53831;52.090;17.026;2022-09-09T00:21:37;16.00;99.90
66920;DHT22;53831;52.090;17.026;2022-09-09T00:22:38;15.90;99.90
66920;DHT22;53831;52.090;17.026;2022-09-09T00:23:42;15.90;99.90
66920;DHT22;53831;52.090;17.026;2022-09-09T00:24:46;15.90;99.90
66920;DHT22;53831;52.090;17.026;2022-09-09T00:25:54;15.90;99.90
66920;DHT22;53831;52.090;17.026;2022-09-09T00:26:59;15.90;99.90
66920;DHT22;53831;52.090;17.026;2022-09-09T00:28:01;15.90;99.90
66920;DHT22;53831;52.090;17.026;2022-09-09T00:31:12;15.90;99.90
66920;DHT22;53831;52.090;17.026;2022-09-09T00:32:15;15.90;99.90
66920;DHT22;53831;52.090;17.026;2022-09-09T00:33:17;15.90;99.90
66920;DHT22;53831;52.090;17.026;2022-09-09T00:34:22;15.90;99.90
66920;DHT22;53831;52.090;17.026;2022-09-09T00:35:29;15.80;99.90
66920;DHT22;53831;52.090;17.026;2022-09-09T00:36:31;15.80;99.90
66920;DHT22;53831;52.090;17.026;2022-09-09T00:37:33;15.90;99.90
66920;DHT22;53831;52.090;17.026;2022-09-09T00:38:36;15.80;99.90
66920;DHT22;53831;52.090;17.026;2022-09-09T00:39:41;15.80;99.90
66920;DHT22;53831;52.090;17.026;2022-09-09T00:40:48;15.80;99.90
66920;DHT22;53831;52.090;17.026;2022-09-09T00:42:54;15.80;99.90
66920;DHT22;53831;52.090;17.026;2022-09-09T00:45:26;15.80;99.90
66920;DHT22;53831;52.090;17.026;2022-09-09T00:47:46;15.80;99.90
66920;DHT22;53831;52.090;17.026;2022-09-09T00:50:57;15.80;99.90
66920;DHT22;53831;52.090;17.026;2022-09-09T00:52:07;15.70;99.90
66920;DHT22;53831;52.090;17.026;2022-09-09T00:53:14;15.70;99.90
66920;DHT22;53831;52.090;17.026;2022-09-09T00:56:37;15.70;99.90
66920;DHT22;53831;52.090;17.026;2022-09-09T00:57:43;15.70;99.90
66920;DHT22;53831;52.090;17.026;2022-09-09T00:58:50;15.70;99.90
66920;DHT22;53831;52.090;17.026;2022-09-09T01:01:15;15.60;99.90
66920;DHT22;53831;52.090;17.026;2022-09-09T01:02:21;15.60;99.90
66920;DHT22;53831;52.090;17.026;2022-09-09T01:04:33;15.60;99.90
66920;DHT22;53831;52.090;17.026;2022-09-09T01:05:43;15.50;99.90
66920;DHT22;53831;52.090;17.026;2022-09-09T01:06:46;15.50;99.90
66920;DHT22;53831;52.090;17.026;2022-09-09T01:07:52;15.50;99.90
66920;DHT22;53831;52.090;17.026;2022-09-09T01:08:57;15.50;99.90
66920;DHT22;53831;52.090;17.026;2022-09-09T01:10:00;15.40;99.90
66920;DHT22;53831;52.090;17.026;2022-09-09T01:11:04;15.40;99.90
66920;DHT22;53831;52.090;17.026;2022-09-09T01:13:08;15.40;99.90
66920;DHT22;53831;52.090;17.026;2022-09-09T01:15:21;15.40;99.90
66920;DHT22;53831;52.090;17.026;2022-09-09T01:16:24;15.40;99.90
66920;DHT22;53831;52.090;17.026;2022-09-09T01:17:27;15.30;99.90
66920;DHT22;53831;52.090;17.026;2022-09-09T01:18:37;15.30;99.90
66920;DHT22;53831;52.090;17.026;2022-09-09T01:20:53;15.30;99.90
66920;DHT22;53831;52.090;17.026;2022-09-09T01:25:18;15.20;99.90
66920;DHT22;53831;52.090;17.026;2022-09-09T01:26:33;15.20;99.90
66920;DHT22;53831;52.090;17.026;2022-09-09T01:27:39;15.20;99.90
66920;DHT22;53831;52.090;17.026;2022-09-09T01:28:48;15.10;99.90
66920;DHT22;53831;52.090;17.026;2022-09-09T01:29:50;15.10;99.90
66920;DHT22;53831;52.090;17.026;2022-09-09T01:30:53;15.10;99.90
66920;DHT22;53831;52.090;17.026;2022-09-09T01:31:59;15.00;99.90
66920;DHT22;53831;52.090;17.026;2022-09-09T01:33:00;15.00;99.90
66920;DHT22;53831;52.090;17.026;2022-09-09T01:34:04;15.00;99.90
66920;DHT22;53831;52.090;17.026;2022-09-09T01:35:11;15.00;99.90
66920;DHT22;53831;52.090;17.026;2022-09-09T01:36:19;14.90;99.90
66920;DHT22;53831;52.090;17.026;2022-09-09T01:37:24;15.00;99.90
66920;DHT22;53831;52.090;17.026;2022-09-09T01:38:25;15.00;99.90
66920;DHT22;53831;52.090;17.026;2022-09-09T01:39:27;15.00;99.90
66920;DHT22;53831;52.090;17.026;2022-09-09T01:40:34;14.90;99.90
66920;DHT22;53831;52.090;17.026;2022-09-09T01:41:35;14.90;99.90
66920;DHT22;53831;52.090;17.026;2022-09-09T01:42:42;14.90;99.90
66920;DHT22;53831;52.090;17.026;2022-09-09T01:43:43;14.90;99.90
66920;DHT22;53831;52.090;17.026;2022-09-09T01:44:43;14.90;99.90
66920;DHT22;53831;52.090;17.026;2022-09-09T01:45:44;15.00;99.90
66920;DHT22;53831;52.090;17.026;2022-09-09T01:46:46;14.90;99.90
66920;DHT22;53831;52.090;17.026;2022-09-09T01:47:51;14.90;99.90
66920;DHT22;53831;52.090;17.026;2022-09-09T01:49:00;14.90;99.90
66920;DHT22;53831;52.090;17.026;2022-09-09T01:50:02;14.80;99.90
66920;DHT22;53831;52.090;17.026;2022-09-09T01:51:04;14.80;99.90
66920;DHT22;53831;52.090;17.026;2022-09-09T01:52:05;14.80;99.90
66920;DHT22;53831;52.090;17.026;2022-09-09T01:53:10;14.80;99.90
66920;DHT22;53831;52.090;17.026;2022-09-09T01:54:11;14.80;99.90
66920;DHT22;53831;52.090;17.026;2022-09-09T01:55:12;14.80;99.90
66920;DHT22;53831;52.090;17.026;2022-09-09T02:00:33;14.80;99.90
66920;DHT22;53831;52.090;17.026;2022-09-09T02:01:45;14.80;99.90
66920;DHT22;53831;52.090;17.026;2022-09-09T02:04:18;14.80;99.90
66920;DHT22;53831;52.090;17.026;2022-09-09T02:06:37;14.80;99.90
66920;DHT22;53831;52.090;17.026;2022-09-09T02:08:40;14.70;99.90
66920;DHT22;53831;52.090;17.026;2022-09-09T02:09:26;14.70;99.90
66920;DHT22;53831;52.090;17.026;2022-09-09T02:10:32;14.70;99.90
66920;DHT22;53831;52.090;17.026;2022-09-09T02:11:46;14.70;99.90
66920;DHT22;53831;52.090;17.026;2022-09-09T02:13:13;14.60;99.90
66920;DHT22;53831;52.090;17.026;2022-09-09T02:14:23;14.70;99.90
66920;DHT22;53831;52.090;17.026;2022-09-09T02:15:32;14.70;99.90
66920;DHT22;53831;52.090;17.026;2022-09-09T02:16:39;14.70;99.90
66920;DHT22;53831;52.090;17.026;2022-09-09T02:17:41;14.70;99.90
66920;DHT22;53831;52.090;17.026;2022-09-09T02:20:06;14.70;99.90
66920;DHT22;53831;52.090;17.026;2022-09-09T02:21:14;14.70;99.90
66920;DHT22;53831;52.090;17.026;2022-09-09T02:22:17;14.70;99.90
66920;DHT22;53831;52.090;17.026;2022-09-09T02:23:19;14.70;99.90
66920;DHT22;53831;52.090;17.026;2022-09-09T02:24:23;14.60;99.90
66920;DHT22;53831;52.090;17.026;2022-09-09T02:25:34;14.60;99.90
66920;DHT22;53831;52.090;17.026;2022-09-09T02:26:47;14.50;99.90
66920;DHT22;53831;52.090;17.026;2022-09-09T02:27:50;14.60;99.90
66920;DHT22;53831;52.090;17.026;2022-09-09T02:28:53;14.60;99.90
66920;DHT22;53831;52.090;17.026;2022-09-09T02:29:54;14.60;99.90
66920;DHT22;53831;52.090;17.026;2022-09-09T02:31:08;14.50;99.90
66920;DHT22;53831;52.090;17.026;2022-09-09T02:32:20;14.60;99.90
66920;DHT22;53831;52.090;17.026;2022-09-09T02:33:23;14.60;99.90
66920;DHT22;53831;52.090;17.026;2022-09-09T02:34:25;14.60;99.90
66920;DHT22;53831;52.090;17.026;2022-09-09T02:35:28;14.50;99.90
66920;DHT22;53831;52.090;17.026;2022-09-09T02:36:32;14.50;99.90
66920;DHT22;53831;52.090;17.026;2022-09-09T02:37:35;14.50;99.90
66920;DHT22;53831;52.090;17.026;2022-09-09T02:38:40;14.40;99.90
66920;DHT22;53831;52.090;17.026;2022-09-09T02:39:47;14.40;99.90
66920;DHT22;53831;52.090;17.026;2022-09-09T02:40:52;14.40;99.90
66920;DHT22;53831;52.090;17.026;2022-09-09T02:41:52;14.50;99.90
66920;DHT22;53831;52.090;17.026;2022-09-09T02:43:02;14.50;99.90
66920;DHT22;53831;52.090;17.026;2022-09-09T02:44:05;14.50;99.90
66920;DHT22;53831;52.090;17.026;2022-09-09T02:45:10;14.50;99.90
66920;DHT22;53831;52.090;17.026;2022-09-09T02:47:16;14.40;99.90
66920;DHT22;53831;52.090;17.026;2022-09-09T02:48:24;14.40;99.90
66920;DHT22;53831;52.090;17.026;2022-09-09T02:50:35;14.30;99.90
66920;DHT22;53831;52.090;17.026;2022-09-09T02:52:47;14.20;99.90
66920;DHT22;53831;52.090;17.026;2022-09-09T02:53:55;14.20;99.90
66920;DHT22;53831;52.090;17.026;2022-09-09T02:55:01;14.20;99.90
66920;DHT22;53831;52.090;17.026;2022-09-09T02:56:17;14.20;99.90
66920;DHT22;53831;52.090;17.026;2022-09-09T02:57:22;14.30;99.90
66920;DHT22;53831;52.090;17.026;2022-09-09T02:58:23;14.30;99.90
66920;DHT22;53831;52.090;17.026;2022-09-09T02:59:32;14.20;99.90
66920;DHT22;53831;52.090;17.026;2022-09-09T03:00:33;14.20;99.90
66920;DHT22;53831;52.090;17.026;2022-09-09T03:01:36;14.20;99.90
66920;DHT22;53831;52.090;17.026;2022-09-09T03:02:37;14.10;99.90
66920;DHT22;53831;52.090;17.026;2022-09-09T03:03:40;14.10;99.90
66920;DHT22;53831;52.090;17.026;2022-09-09T03:04:46;14.10;99.90
66920;DHT22;53831;52.090;17.026;2022-09-09T03:05:51;14.10;99.90
66920;DHT22;53831;52.090;17.026;2022-09-09T03:06:52;14.00;99.90
66920;DHT22;53831;52.090;17.026;2022-09-09T03:07:54;14.00;99.90
66920;DHT22;53831;52.090;17.026;2022-09-09T03:08:55;14.00;99.90
66920;DHT22;53831;52.090;17.026;2022-09-09T03:09:59;14.00;99.90
66920;DHT22;53831;52.090;17.026;2022-09-09T03:11:01;14.00;99.90
66920;DHT22;53831;52.090;17.026;2022-09-09T03:12:04;14.00;99.90
66920;DHT22;53831;52.090;17.026;2022-09-09T03:13:07;14.00;99.90
66920;DHT22;53831;52.090;17.026;2022-09-09T03:14:12;14.00;99.90
66920;DHT22;53831;52.090;17.026;2022-09-09T03:15:14;13.90;99.90
66920;DHT22;53831;52.090;17.026;2022-09-09T03:16:15;13.90;99.90
66920;DHT22;53831;52.090;17.026;2022-09-09T03:17:20;13.90;99.90
66920;DHT22;53831;52.090;17.026;2022-09-09T03:18:26;13.90;99.90
66920;DHT22;53831;52.090;17.026;2022-09-09T03:19:28;13.90;99.90
66920;DHT22;53831;52.090;17.026;2022-09-09T03:20:30;13.90;99.90
66920;DHT22;53831;52.090;17.026;2022-09-09T03:21:31;13.90;99.90
66920;DHT22;53831;52.090;17.026;2022-09-09T03:22:33;13.90;99.90
66920;DHT22;53831;52.090;17.026;2022-09-09T03:23:34;13.90;99.90
66920;DHT22;53831;52.090;17.026;2022-09-09T03:24:37;13.80;99.90
66920;DHT22;53831;52.090;17.026;2022-09-09T03:25:39;13.90;99.90
66920;DHT22;53831;52.090;17.026;2022-09-09T03:26:40;13.80;99.90
66920;DHT22;53831;52.090;17.026;2022-09-09T03:27:45;13.80;99.90
66920;DHT22;53831;52.090;17.026;2022-09-09T03:28:46;13.80;99.90
66920;DHT22;53831;52.090;17.026;2022-09-09T03:29:51;13.80;99.90
66920;DHT22;53831;52.090;17.026;2022-09-09T03:30:57;13.80;99.90
66920;DHT22;53831;52.090;17.026;2022-09-09T03:31:58;13.80;99.90
66920;DHT22;53831;52.090;17.026;2022-09-09T03:32:58;13.80;99.90
66920;DHT22;53831;52.090;17.026;2022-09-09T03:34:04;13.80;99.90
66920;DHT22;53831;52.090;17.026;2022-09-09T03:35:07;13.80;99.90
66920;DHT22;53831;52.090;17.026;2022-09-09T03:36:08;13.80;99.90
66920;DHT22;53831;52.090;17.026;2022-09-09T03:37:09;13.90;99.90
66920;DHT22;53831;52.090;17.026;2022-09-09T03:38:10;13.80;99.90
66920;DHT22;53831;52.090;17.026;2022-09-09T03:39:12;13.80;99.90
66920;DHT22;53831;52.090;17.026;2022-09-09T03:40:15;13.80;99.90
66920;DHT22;53831;52.090;17.026;2022-09-09T03:41:19;13.80;99.90
66920;DHT22;53831;52.090;17.026;2022-09-09T03:42:20;13.80;99.90
66920;DHT22;53831;52.090;17.026;2022-09-09T03:43:25;13.80;99.90
66920;DHT22;53831;52.090;17.026;2022-09-09T03:44:27;13.80;99.90
66920;DHT22;53831;52.090;17.026;2022-09-09T03:45:29;13.80;99.90
66920;DHT22;53831;52.090;17.026;2022-09-09T03:46:31;13.80;99.90
66920;DHT22;53831;52.090;17.026;2022-09-09T03:47:33;13.80;99.90
66920;DHT22;53831;52.090;17.026;2022-09-09T03:48:38;13.80;99.90
66920;DHT22;53831;52.090;17.026;2022-09-09T03:49:39;13.80;99.90
66920;DHT22;53831;52.090;17.026;2022-09-09T03:50:47;13.80;99.90
66920;DHT22;53831;52.090;17.026;2022-09-09T03:51:48;13.80;99.90
66920;DHT22;53831;52.090;17.026;2022-09-09T03:52:48;13.80;99.90
66920;DHT22;53831;52.090;17.026;2022-09-09T03:53:54;13.80;99.90
66920;DHT22;53831;52.090;17.026;2022-09-09T03:54:57;13.80;99.90
66920;DHT22;53831;52.090;17.026;2022-09-09T03:55:58;13.80;99.90
66920;DHT22;53831;52.090;17.026;2022-09-09T03:57:00;13.70;99.90
66920;DHT22;53831;52.090;17.026;2022-09-09T03:58:01;13.70;99.90
66920;DHT22;53831;52.090;17.026;2022-09-09T03:59:02;13.60;99.90
66920;DHT22;53831;52.090;17.026;2022-09-09T04:00:03;13.60;99.90
66920;DHT22;53831;52.090;17.026;2022-09-09T04:01:07;13.60;99.90
66920;DHT22;53831;52.090;17.026;2022-09-09T04:02:09;13.60;99.90
66920;DHT22;53831;52.090;17.026;2022-09-09T04:03:10;13.50;99.90
66920;DHT22;53831;52.090;17.026;2022-09-09T04:04:11;13.50;99.90
66920;DHT22;53831;52.090;17.026;2022-09-09T04:05:12;13.50;99.90
66920;DHT22;53831;52.090;17.026;2022-09-09T04:06:15;13.40;99.90
66920;DHT22;53831;52.090;17.026;2022-09-09T04:07:20;13.40;99.90
66920;DHT22;53831;52.090;17.026;2022-09-09T04:08:21;13.40;99.90
66920;DHT22;53831;52.090;17.026;2022-09-09T04:09:23;13.40;99.90
66920;DHT22;53831;52.090;17.026;2022-09-09T04:10:25;13.30;99.90
66920;DHT22;53831;52.090;17.026;2022-09-09T04:11:26;13.30;99.90
66920;DHT22;53831;52.090;17.026;2022-09-09T04:12:29;13.30;99.90
66920;DHT22;53831;52.090;17.026;2022-09-09T04:13:29;13.30;99.90
66920;DHT22;53831;52.090;17.026;2022-09-09T04:14:31;13.20;99.90
66920;DHT22;53831;52.090;17.026;2022-09-09T04:15:32;13.20;99.90
66920;DHT22;53831;52.090;17.026;2022-09-09T04:16:33;13.20;99.90
66920;DHT22;53831;52.090;17.026;2022-09-09T04:17:36;13.20;99.90
66920;DHT22;53831;52.090;17.026;2022-09-09T04:18:37;13.10;99.90
66920;DHT22;53831;52.090;17.026;2022-09-09T04:19:38;13.10;99.90
66920;DHT22;53831;52.090;17.026;2022-09-09T04:20:38;13.20;99.90
66920;DHT22;53831;52.090;17.026;2022-09-09T04:21:40;13.10;99.90
66920;DHT22;53831;52.090;17.026;2022-09-09T04:22:41;13.10;99.90
66920;DHT22;53831;52.090;17.026;2022-09-09T04:23:41;13.10;99.90
66920;DHT22;53831;52.090;17.026;2022-09-09T04:24:42;13.10;99.90
66920;DHT22;53831;52.090;17.026;2022-09-09T04:25:43;13.00;99.90
66920;DHT22;53831;52.090;17.026;2022-09-09T04:26:45;13.00;99.90
66920;DHT22;53831;52.090;17.026;2022-09-09T04:27:46;13.00;99.90
66920;DHT22;53831;52.090;17.026;2022-09-09T04:28:48;13.00;99.90
66920;DHT22;53831;52.090;17.026;2022-09-09T04:29:52;12.90;99.90
66920;DHT22;53831;52.090;17.026;2022-09-09T04:30:52;12.90;99.90
66920;DHT22;53831;52.090;17.026;2022-09-09T04:31:53;12.90;99.90
66920;DHT22;53831;52.090;17.026;2022-09-09T04:32:54;12.90;99.90
66920;DHT22;53831;52.090;17.026;2022-09-09T04:33:54;12.90;99.90
66920;DHT22;53831;52.090;17.026;2022-09-09T04:34:55;12.90;99.90
66920;DHT22;53831;52.090;17.026;2022-09-09T04:35:56;12.90;99.90
66920;DHT22;53831;52.090;17.026;2022-09-09T04:36:59;13.00;99.90
66920;DHT22;53831;52.090;17.026;2022-09-09T04:38:01;13.00;99.90
66920;DHT22;53831;52.090;17.026;2022-09-09T04:39:04;13.00;99.90
66920;DHT22;53831;52.090;17.026;2022-09-09T04:40:04;13.00;99.90
66920;DHT22;53831;52.090;17.026;2022-09-09T04:41:06;13.00;99.90
66920;DHT22;53831;52.090;17.026;2022-09-09T04:42:09;13.00;99.90
66920;DHT22;53831;52.090;17.026;2022-09-09T04:43:10;13.00;99.90
66920;DHT22;53831;52.090;17.026;2022-09-09T04:44:11;13.00;99.90
66920;DHT22;53831;52.090;17.026;2022-09-09T04:45:12;13.00;99.90
66920;DHT22;53831;52.090;17.026;2022-09-09T04:46:15;13.00;99.90
66920;DHT22;53831;52.090;17.026;2022-09-09T04:47:20;13.00;99.90
66920;DHT22;53831;52.090;17.026;2022-09-09T04:48:24;13.00;99.90
66920;DHT22;53831;52.090;17.026;2022-09-09T04:49:25;13.00;99.90
66920;DHT22;53831;52.090;17.026;2022-09-09T04:50:26;13.10;99.90
66920;DHT22;53831;52.090;17.026;2022-09-09T04:51:32;13.10;99.90
66920;DHT22;53831;52.090;17.026;2022-09-09T04:52:34;13.10;99.90
66920;DHT22;53831;52.090;17.026;2022-09-09T04:53:35;13.20;99.90
66920;DHT22;53831;52.090;17.026;2022-09-09T04:54:36;13.20;99.90
66920;DHT22;53831;52.090;17.026;2022-09-09T04:55:36;13.20;99.90
66920;DHT22;53831;52.090;17.026;2022-09-09T04:56:38;13.20;99.90
66920;DHT22;53831;52.090;17.026;2022-09-09T04:57:39;13.30;99.90
66920;DHT22;53831;52.090;17.026;2022-09-09T04:58:39;13.30;99.90
66920;DHT22;53831;52.090;17.026;2022-09-09T04:59:43;13.30;99.90
66920;DHT22;53831;52.090;17.026;2022-09-09T05:00:44;13.30;99.90
66920;DHT22;53831;52.090;17.026;2022-09-09T05:01:45;13.30;99.90
66920;DHT22;53831;52.090;17.026;2022-09-09T05:02:46;13.30;99.90
66920;DHT22;53831;52.090;17.026;2022-09-09T05:03:48;13.30;99.90
66920;DHT22;53831;52.090;17.026;2022-09-09T05:04:52;13.30;99.90
66920;DHT22;53831;52.090;17.026;2022-09-09T05:05:52;13.30;99.90
66920;DHT22;53831;52.090;17.026;2022-09-09T05:06:53;13.30;99.90
66920;DHT22;53831;52.090;17.026;2022-09-09T05:07:54;13.30;99.90
66920;DHT22;53831;52.090;17.026;2022-09-09T05:08:54;13.40;99.90
66920;DHT22;53831;52.090;17.026;2022-09-09T05:09:59;13.40;99.90
66920;DHT22;53831;52.090;17.026;2022-09-09T05:10:59;13.40;99.90
66920;DHT22;53831;52.090;17.026;2022-09-09T05:12:01;13.40;99.90
66920;DHT22;53831;52.090;17.026;2022-09-09T05:13:06;13.40;99.90
66920;DHT22;53831;52.090;17.026;2022-09-09T05:14:07;13.50;99.90
66920;DHT22;53831;52.090;17.026;2022-09-09T05:15:10;13.50;99.90
66920;DHT22;53831;52.090;17.026;2022-09-09T05:16:12;13.50;99.90
66920;DHT22;53831;52.090;17.026;2022-09-09T05:17:13;13.50;99.90
66920;DHT22;53831;52.090;17.026;2022-09-09T05:18:13;13.60;99.90
66920;DHT22;53831;52.090;17.026;2022-09-09T05:19:15;13.70;99.90
66920;DHT22;53831;52.090;17.026;2022-09-09T05:20:20;13.70;99.90
66920;DHT22;53831;52.090;17.026;2022-09-09T05:21:23;13.70;99.90
66920;DHT22;53831;52.090;17.026;2022-09-09T05:22:25;13.80;99.90
66920;DHT22;53831;52.090;17.026;2022-09-09T05:23:27;13.80;99.90
66920;DHT22;53831;52.090;17.026;2022-09-09T05:24:28;13.90;99.90
66920;DHT22;53831;52.090;17.026;2022-09-09T05:25:32;13.90;99.90
66920;DHT22;53831;52.090;17.026;2022-09-09T05:26:32;14.00;99.90
66920;DHT22;53831;52.090;17.026;2022-09-09T05:27:34;14.00;99.90
66920;DHT22;53831;52.090;17.026;2022-09-09T05:28:35;14.10;99.90
66920;DHT22;53831;52.090;17.026;2022-09-09T05:29:36;14.10;99.90
66920;DHT22;53831;52.090;17.026;2022-09-09T05:30:39;14.20;99.90
66920;DHT22;53831;52.090;17.026;2022-09-09T05:31:40;14.20;99.90
66920;DHT22;53831;52.090;17.026;2022-09-09T05:32:45;14.30;99.90
66920;DHT22;53831;52.090;17.026;2022-09-09T05:33:47;14.30;99.90
66920;DHT22;53831;52.090;17.026;2022-09-09T05:34:49;14.40;99.90
66920;DHT22;53831;52.090;17.026;2022-09-09T05:36:00;14.40;99.90
66920;DHT22;53831;52.090;17.026;2022-09-09T05:37:02;14.40;99.90
66920;DHT22;53831;52.090;17.026;2022-09-09T05:38:02;14.40;99.90
66920;DHT22;53831;52.090;17.026;2022-09-09T05:39:03;14.40;99.90
66920;DHT22;53831;52.090;17.026;2022-09-09T05:40:08;14.50;99.90
66920;DHT22;53831;52.090;17.026;2022-09-09T05:41:10;14.50;99.90
66920;DHT22;53831;52.090;17.026;2022-09-09T05:42:11;14.50;99.90
66920;DHT22;53831;52.090;17.026;2022-09-09T05:43:13;14.60;99.90
66920;DHT22;53831;52.090;17.026;2022-09-09T05:44:14;14.60;99.90
66920;DHT22;53831;52.090;17.026;2022-09-09T05:45:15;14.60;99.90
66920;DHT22;53831;52.090;17.026;2022-09-09T05:46:22;14.60;99.90
66920;DHT22;53831;52.090;17.026;2022-09-09T05:47:25;14.70;99.90
66920;DHT22;53831;52.090;17.026;2022-09-09T05:48:29;14.70;99.90
66920;DHT22;53831;52.090;17.026;2022-09-09T05:49:30;14.70;99.90
66920;DHT22;53831;52.090;17.026;2022-09-09T05:50:30;14.70;99.90
66920;DHT22;53831;52.090;17.026;2022-09-09T05:51:32;14.70;99.90
66920;DHT22;53831;52.090;17.026;2022-09-09T05:52:37;14.70;99.90
66920;DHT22;53831;52.090;17.026;2022-09-09T05:53:39;14.80;99.90
66920;DHT22;53831;52.090;17.026;2022-09-09T05:54:40;14.80;99.90
66920;DHT22;53831;52.090;17.026;2022-09-09T05:55:42;14.80;99.90
66920;DHT22;53831;52.090;17.026;2022-09-09T05:56:44;14.80;99.90
66920;DHT22;53831;52.090;17.026;2022-09-09T05:57:48;14.80;99.90
66920;DHT22;53831;52.090;17.026;2022-09-09T05:58:48;14.90;99.90
66920;DHT22;53831;52.090;17.026;2022-09-09T05:59:49;14.90;99.90
66920;DHT22;53831;52.090;17.026;2022-09-09T06:00:50;14.90;99.90
66920;DHT22;53831;52.090;17.026;2022-09-09T06:01:51;14.90;99.90
66920;DHT22;53831;52.090;17.026;2022-09-09T06:02:58;15.00;99.90
66920;DHT22;53831;52.090;17.026;2022-09-09T06:03:59;15.00;99.90
66920;DHT22;53831;52.090;17.026;2022-09-09T06:05:00;15.00;99.90
66920;DHT22;53831;52.090;17.026;2022-09-09T06:06:01;15.00;99.90
66920;DHT22;53831;52.090;17.026;2022-09-09T06:07:05;15.10;99.90
66920;DHT22;53831;52.090;17.026;2022-09-09T06:08:06;15.10;99.90
66920;DHT22;53831;52.090;17.026;2022-09-09T06:09:07;15.10;99.90
66920;DHT22;53831;52.090;17.026;2022-09-09T06:10:11;15.20;99.90
66920;DHT22;53831;52.090;17.026;2022-09-09T06:11:15;15.20;99.90
66920;DHT22;53831;52.090;17.026;2022-09-09T06:12:16;15.20;99.90
66920;DHT22;53831;52.090;17.026;2022-09-09T06:13:17;15.30;99.90
66920;DHT22;53831;52.090;17.026;2022-09-09T06:14:17;15.30;99.90
66920;DHT22;53831;52.090;17.026;2022-09-09T06:15:20;15.30;99.90
66920;DHT22;53831;52.090;17.026;2022-09-09T06:16:22;15.30;99.90
66920;DHT22;53831;52.090;17.026;2022-09-09T06:17:26;15.40;99.90
66920;DHT22;53831;52.090;17.026;2022-09-09T06:18:27;15.40;99.90
66920;DHT22;53831;52.090;17.026;2022-09-09T06:19:28;15.40;99.90
66920;DHT22;53831;52.090;17.026;2022-09-09T06:20:31;15.40;99.90
66920;DHT22;53831;52.090;17.026;2022-09-09T06:21:33;15.40;99.90
66920;DHT22;53831;52.090;17.026;2022-09-09T06:22:35;15.40;99.90
66920;DHT22;53831;52.090;17.026;2022-09-09T06:23:36;15.50;99.90
66920;DHT22;53831;52.090;17.026;2022-09-09T06:24:37;15.50;99.90
66920;DHT22;53831;52.090;17.026;2022-09-09T06:25:38;15.50;99.90
66920;DHT22;53831;52.090;17.026;2022-09-09T06:26:41;15.50;99.90
66920;DHT22;53831;52.090;17.026;2022-09-09T06:27:47;15.60;99.90
66920;DHT22;53831;52.090;17.026;2022-09-09T06:28:49;15.60;99.90
66920;DHT22;53831;52.090;17.026;2022-09-09T06:29:50;15.70;99.90
66920;DHT22;53831;52.090;17.026;2022-09-09T06:30:56;15.70;99.90
66920;DHT22;53831;52.090;17.026;2022-09-09T06:31:57;15.80;99.90
66920;DHT22;53831;52.090;17.026;2022-09-09T06:33:00;15.80;99.90
66920;DHT22;53831;52.090;17.026;2022-09-09T06:34:01;15.80;99.90
66920;DHT22;53831;52.090;17.026;2022-09-09T06:35:03;15.80;99.90
66920;DHT22;53831;52.090;17.026;2022-09-09T06:36:05;15.90;99.90
66920;DHT22;53831;52.090;17.026;2022-09-09T06:37:06;15.90;99.90
66920;DHT22;53831;52.090;17.026;2022-09-09T06:38:16;15.90;99.90
66920;DHT22;53831;52.090;17.026;2022-09-09T06:39:19;16.00;99.90
66920;DHT22;53831;52.090;17.026;2022-09-09T06:40:20;16.00;99.90
66920;DHT22;53831;52.090;17.026;2022-09-09T06:41:22;16.00;99.90
66920;DHT22;53831;52.090;17.026;2022-09-09T06:42:23;16.10;99.90
66920;DHT22;53831;52.090;17.026;2022-09-09T06:43:24;16.10;99.90
66920;DHT22;53831;52.090;17.026;2022-09-09T06:44:25;16.10;99.90
66920;DHT22;53831;52.090;17.026;2022-09-09T06:45:27;16.20;99.90
66920;DHT22;53831;52.090;17.026;2022-09-09T06:46:31;16.20;99.90
66920;DHT22;53831;52.090;17.026;2022-09-09T06:47:34;16.20;99.90
66920;DHT22;53831;52.090;17.026;2022-09-09T06:48:34;16.30;99.90
66920;DHT22;53831;52.090;17.026;2022-09-09T06:49:35;16.30;99.90
66920;DHT22;53831;52.090;17.026;2022-09-09T06:50:39;16.30;99.90
66920;DHT22;53831;52.090;17.026;2022-09-09T06:51:40;16.30;99.90
66920;DHT22;53831;52.090;17.026;2022-09-09T06:52:46;16.40;99.90
66920;DHT22;53831;52.090;17.026;2022-09-09T06:53:47;16.40;99.90
66920;DHT22;53831;52.090;17.026;2022-09-09T06:54:48;16.40;99.90
66920;DHT22;53831;52.090;17.026;2022-09-09T06:55:50;16.40;99.90
66920;DHT22;53831;52.090;17.026;2022-09-09T06:56:51;16.50;99.90
66920;DHT22;53831;52.090;17.026;2022-09-09T06:57:56;16.50;99.90
66920;DHT22;53831;52.090;17.026;2022-09-09T06:58:58;16.60;99.90
66920;DHT22;53831;52.090;17.026;2022-09-09T07:00:03;16.60;99.90
66920;DHT22;53831;52.090;17.026;2022-09-09T07:01:06;16.60;99.90
66920;DHT22;53831;52.090;17.026;2022-09-09T07:02:08;16.60;99.90
66920;DHT22;53831;52.090;17.026;2022-09-09T07:03:09;16.70;99.90
66920;DHT22;53831;52.090;17.026;2022-09-09T07:04:10;16.60;99.90
66920;DHT22;53831;52.090;17.026;2022-09-09T07:05:13;16.70;99.90
66920;DHT22;53831;52.090;17.026;2022-09-09T07:06:18;16.70;99.90
66920;DHT22;53831;52.090;17.026;2022-09-09T07:07:19;16.70;99.90
66920;DHT22;53831;52.090;17.026;2022-09-09T07:08:20;16.70;99.90
66920;DHT22;53831;52.090;17.026;2022-09-09T07:09:21;16.70;99.90
66920;DHT22;53831;52.090;17.026;2022-09-09T07:10:23;16.80;99.90